Time;durP1;ratioP1;P1;durP2;ratioP2;P2;SDS_P1;SDS_P2;PMS_P1;PMS_P2;Temp;Humidity;BMP_temperature;BMP_pressure;BME280_temperature;BME280_humidity;BME280_pressure;Samples;Min_cycle;Max_cycle;Signal;HPM_P1;HPM_P2
2021/05/24 00:00:30;;;;;;;;;;;29.10;91.10;;;;;;5048139;28;19904;-50
2021/05/24 00:02:57;;;;;;;;;;;29.10;91.20;;;;;;5074627;28;19912;-49
2021/05/24 00:05:27;;;;;;;;;;;29.10;91.10;;;;;;5077901;28;19909;-51
2021/05/24 00:07:54;;;;;;;;;;;29.00;91.00;;;;;;5048370;28;19935;-50
2021/05/24 00:10:21;;;;;;;;;;;29.00;91.00;;;;;;5065388;28;19905;-48
2021/05/24 00:12:49;;;;;;;;;;;28.90;90.90;;;;;;5067467;28;19924;-49
2021/05/24 00:15:35;;;;;;;;;;;28.90;90.90;;;;;;5073608;28;19909;-53
2021/05/24 00:18:01;;;;;;;;;;;28.90;90.80;;;;;;5037255;28;19916;-52
2021/05/24 00:20:28;;;;;;;;;;;28.80;90.80;;;;;;5080003;28;19915;-46
2021/05/24 00:22:55;;;;;;;;;;;28.80;90.70;;;;;;5065739;28;19913;-46
2021/05/24 00:25:21;;;;;;;;;;;28.80;90.70;;;;;;5065005;28;19912;-48
2021/05/24 00:27:48;;;;;;;;;;;28.90;90.60;;;;;;5073740;28;19912;-51
2021/05/24 00:30:14;;;;;;;;;;;28.90;90.40;;;;;;5082000;28;19935;-50
2021/05/24 00:32:41;;;;;;;;;;;28.90;90.30;;;;;;5065234;28;19925;-52
2021/05/24 00:35:07;;;;;;;;;;;29.00;90.20;;;;;;5065383;28;19951;-50
2021/05/24 00:37:35;;;;;;;;;;;29.00;90.10;;;;;;5065700;28;19944;-51
2021/05/24 00:40:01;;;;;;;;;;;29.00;90.20;;;;;;5064789;28;19932;-51
2021/05/24 00:42:28;;;;;;;;;;;29.00;90.00;;;;;;5049840;28;19920;-51
2021/05/24 00:44:54;;;;;;;;;;;29.00;89.60;;;;;;5076093;28;19972;-62
2021/05/24 00:47:20;;;;;;;;;;;29.00;89.30;;;;;;5083494;28;19948;-52
2021/05/24 00:49:46;;;;;;;;;;;29.00;89.20;;;;;;5085516;28;19918;-52
2021/05/24 00:52:13;;;;;;;;;;;29.00;89.10;;;;;;5065525;28;19920;-53
2021/05/24 00:54:39;;;;;;;;;;;29.00;89.00;;;;;;5065393;28;19927;-52
2021/05/24 00:57:06;;;;;;;;;;;29.00;88.90;;;;;;5064886;28;19913;-52
2021/05/24 00:59:32;;;;;;;;;;;29.00;88.70;;;;;;5065287;28;19905;-51
2021/05/24 01:01:58;;;;;;;;;;;29.00;88.50;;;;;;5065138;28;19919;-51
2021/05/24 01:04:24;;;;;;;;;;;29.00;88.40;;;;;;5065260;28;20164;-58
2021/05/24 01:06:53;;;;;;;;;;;29.00;88.50;;;;;;5074161;28;19935;-50
2021/05/24 01:09:20;;;;;;;;;;;28.90;88.60;;;;;;5084952;28;19904;-51
2021/05/24 01:11:47;;;;;;;;;;;28.90;88.20;;;;;;5068252;28;19919;-51
2021/05/24 01:14:14;;;;;;;;;;;28.90;87.90;;;;;;5047348;28;20121;-51
2021/05/24 01:16:41;;;;;;;;;;;28.90;87.90;;;;;;5064921;28;20145;-52
2021/05/24 01:19:07;;;;;;;;;;;28.90;87.90;;;;;;5064656;28;19975;-51
2021/05/24 01:21:33;;;;;;;;;;;28.90;87.80;;;;;;5064586;28;19925;-50
2021/05/24 01:24:00;;;;;;;;;;;28.90;87.50;;;;;;5064535;28;19932;-50
2021/05/24 01:26:27;;;;;;;;;;;28.80;87.40;;;;;;5048787;28;20094;-60
2021/05/24 01:28:53;;;;;;;;;;;28.80;87.20;;;;;;5064691;28;19943;-50
2021/05/24 01:31:19;;;;;;;;;;;28.80;87.00;;;;;;5071918;28;19913;-51
2021/05/24 01:33:45;;;;;;;;;;;28.80;86.90;;;;;;5084176;28;19921;-51
2021/05/24 01:36:12;;;;;;;;;;;28.80;87.10;;;;;;5072681;28;20208;-49
2021/05/24 01:38:39;;;;;;;;;;;28.80;86.80;;;;;;5064321;28;19909;-51
2021/05/24 01:41:06;;;;;;;;;;;28.80;86.80;;;;;;5054788;28;20101;-51
2021/05/24 01:43:32;;;;;;;;;;;28.80;86.90;;;;;;5078890;28;19950;-53
2021/05/24 01:45:59;;;;;;;;;;;28.80;86.90;;;;;;5078864;28;19940;-52
2021/05/24 01:48:26;;;;;;;;;;;28.70;86.70;;;;;;5084477;28;20236;-51
2021/05/24 01:50:53;;;;;;;;;;;28.80;86.80;;;;;;5056981;28;19908;-56
2021/05/24 01:53:19;;;;;;;;;;;28.70;86.90;;;;;;5064390;28;19917;-49
2021/05/24 01:55:46;;;;;;;;;;;28.70;86.90;;;;;;5063806;28;19955;-50
2021/05/24 01:58:12;;;;;;;;;;;28.70;86.90;;;;;;5064099;28;19905;-50
2021/05/24 02:00:38;;;;;;;;;;;28.70;86.80;;;;;;5051940;28;20251;-51
2021/05/24 02:03:07;;;;;;;;;;;28.60;86.90;;;;;;5064978;28;19955;-51
2021/05/24 02:05:33;;;;;;;;;;;28.60;86.60;;;;;;5065750;28;19919;-52
2021/05/24 02:08:00;;;;;;;;;;;28.60;86.70;;;;;;5064574;28;20200;-51
2021/05/24 02:10:27;;;;;;;;;;;28.60;86.60;;;;;;5050555;28;19975;-53
2021/05/24 02:12:54;;;;;;;;;;;28.60;86.50;;;;;;5078941;28;20284;-53
2021/05/24 02:15:22;;;;;;;;;;;28.60;87.00;;;;;;5072359;28;19909;-50
2021/05/24 02:17:48;;;;;;;;;;;28.60;86.60;;;;;;5081645;28;19912;-51
2021/05/24 02:20:22;;;;;;;;;;;28.60;86.50;;;;;;5074497;28;19909;-56
2021/05/24 02:22:48;;;;;;;;;;;28.50;86.20;;;;;;5050784;28;19920;-51
2021/05/24 02:25:14;;;;;;;;;;;28.50;86.20;;;;;;5069250;28;19917;-53
2021/05/24 02:27:41;;;;;;;;;;;28.40;86.20;;;;;;5070699;28;19928;-50
2021/05/24 02:30:08;;;;;;;;;;;28.40;86.20;;;;;;5074099;28;19943;-50
2021/05/24 02:32:34;;;;;;;;;;;28.40;86.20;;;;;;5063503;28;19968;-51
2021/05/24 02:35:00;;;;;;;;;;;28.40;86.40;;;;;;5062746;28;19911;-53
2021/05/24 02:37:27;;;;;;;;;;;28.40;86.50;;;;;;5062847;28;19920;-52
2021/05/24 02:39:53;;;;;;;;;;;28.40;87.00;;;;;;5064463;28;20106;-52
2021/05/24 02:42:19;;;;;;;;;;;28.40;86.70;;;;;;5069740;28;19940;-48
2021/05/24 02:44:46;;;;;;;;;;;28.40;86.70;;;;;;5063947;28;19911;-51
2021/05/24 02:47:12;;;;;;;;;;;28.40;86.40;;;;;;5064170;28;19936;-50
2021/05/24 02:49:38;;;;;;;;;;;28.40;86.60;;;;;;5063066;28;20212;-49
2021/05/24 02:52:05;;;;;;;;;;;28.40;86.80;;;;;;5064327;28;19920;-53
2021/05/24 02:54:31;;;;;;;;;;;28.30;86.70;;;;;;5065338;28;19905;-49
2021/05/24 02:56:58;;;;;;;;;;;28.30;86.70;;;;;;5067365;28;19917;-49
2021/05/24 02:59:24;;;;;;;;;;;28.30;86.80;;;;;;5068250;28;19962;-49
2021/05/24 03:01:51;;;;;;;;;;;28.30;86.80;;;;;;5067740;28;19913;-48
2021/05/24 03:04:24;;;;;;;;;;;28.30;86.90;;;;;;5050394;28;20074;-49
2021/05/24 03:06:50;;;;;;;;;;;28.30;86.80;;;;;;5067576;28;19963;-52
2021/05/24 03:09:16;;;;;;;;;;;28.30;87.20;;;;;;5066656;28;20330;-58
2021/05/24 03:11:43;;;;;;;;;;;28.30;86.80;;;;;;5052193;28;19967;-50
2021/05/24 03:14:09;;;;;;;;;;;28.30;86.80;;;;;;5047215;28;19905;-50
2021/05/24 03:16:35;;;;;;;;;;;28.30;86.50;;;;;;5061406;28;19958;-54
2021/05/24 03:19:01;;;;;;;;;;;28.20;86.40;;;;;;5048901;28;20208;-57
2021/05/24 03:21:28;;;;;;;;;;;28.20;86.30;;;;;;5066722;28;20189;-51
2021/05/24 03:23:54;;;;;;;;;;;28.20;86.40;;;;;;5066832;28;19975;-50
2021/05/24 03:26:20;;;;;;;;;;;28.20;86.00;;;;;;5066917;28;19917;-50
2021/05/24 03:28:46;;;;;;;;;;;28.20;86.10;;;;;;5066571;28;20217;-51
2021/05/24 03:31:13;;;;;;;;;;;28.20;86.00;;;;;;5076810;28;19919;-50
2021/05/24 03:33:40;;;;;;;;;;;28.20;85.90;;;;;;5087407;28;19909;-50
2021/05/24 03:36:07;;;;;;;;;;;28.20;85.70;;;;;;5076917;28;19913;-52
2021/05/24 03:38:33;;;;;;;;;;;28.10;85.40;;;;;;5067516;28;19943;-52
2021/05/24 03:41:00;;;;;;;;;;;28.10;85.60;;;;;;5067079;28;19979;-53
2021/05/24 03:43:26;;;;;;;;;;;28.10;85.60;;;;;;5067265;28;19905;-50
2021/05/24 03:45:53;;;;;;;;;;;28.10;85.70;;;;;;5067056;28;19967;-50
2021/05/24 03:48:19;;;;;;;;;;;28.10;85.60;;;;;;5067108;28;19913;-50
2021/05/24 03:50:45;;;;;;;;;;;28.10;85.80;;;;;;5067122;28;19940;-50
2021/05/24 03:53:12;;;;;;;;;;;28.10;85.80;;;;;;5067056;28;19913;-50
2021/05/24 03:55:38;;;;;;;;;;;28.00;86.10;;;;;;5049277;28;19905;-51
2021/05/24 03:58:05;;;;;;;;;;;28.00;86.40;;;;;;5049221;28;20122;-50
2021/05/24 04:00:31;;;;;;;;;;;28.00;86.70;;;;;;5066828;28;20259;-50
2021/05/24 04:03:01;;;;;;;;;;;28.00;86.90;;;;;;5067191;28;19923;-54
2021/05/24 04:05:33;;;;;;;;;;;28.00;86.80;;;;;;5065857;28;19911;-51
2021/05/24 04:08:00;;;;;;;;;;;27.90;86.60;;;;;;5067317;28;19912;-50
2021/05/24 04:10:51;;;;;;;;;;;27.90;86.70;;;;;;5066642;28;19905;-49
2021/05/24 04:13:15;;;;;;;;;;;27.90;86.50;;;;;;5066137;28;19982;-52
2021/05/24 04:15:45;;;;;;;;;;;27.90;86.30;;;;;;5066233;28;20128;-52
2021/05/24 04:18:15;;;;;;;;;;;27.90;86.00;;;;;;5066486;28;19940;-51
2021/05/24 04:20:43;;;;;;;;;;;28.00;85.70;;;;;;5064463;28;19909;-59
2021/05/24 04:23:09;;;;;;;;;;;28.00;85.40;;;;;;5049055;28;19916;-48
2021/05/24 04:25:35;;;;;;;;;;;28.00;84.60;;;;;;5046474;28;19952;-50
2021/05/24 04:28:01;;;;;;;;;;;28.00;84.50;;;;;;5046920;28;19972;-53
2021/05/24 04:30:28;;;;;;;;;;;28.00;83.90;;;;;;5046532;28;19917;-49
2021/05/24 04:32:54;;;;;;;;;;;28.00;83.90;;;;;;5046752;28;19913;-52
2021/05/24 04:35:20;;;;;;;;;;;27.90;83.90;;;;;;5046383;28;19908;-50
2021/05/24 04:37:46;;;;;;;;;;;27.90;83.90;;;;;;5046569;28;19951;-53
2021/05/24 04:40:13;;;;;;;;;;;27.90;84.00;;;;;;5046099;28;19916;-49
2021/05/24 04:42:39;;;;;;;;;;;27.90;83.90;;;;;;5046082;28;19932;-50
2021/05/24 04:45:06;;;;;;;;;;;27.90;83.60;;;;;;5045156;28;19916;-49
2021/05/24 04:47:32;;;;;;;;;;;27.90;83.50;;;;;;5048196;28;19916;-49
2021/05/24 04:49:58;;;;;;;;;;;27.90;83.40;;;;;;5068008;28;19936;-49
2021/05/24 04:52:24;;;;;;;;;;;27.90;83.20;;;;;;5085651;28;19921;-48
2021/05/24 04:54:51;;;;;;;;;;;27.90;83.30;;;;;;5085480;28;19904;-51
2021/05/24 04:57:17;;;;;;;;;;;27.90;83.20;;;;;;5086240;28;19940;-50
2021/05/24 04:59:43;;;;;;;;;;;27.90;83.20;;;;;;5085720;28;19905;-49
2021/05/24 05:02:09;;;;;;;;;;;27.90;83.10;;;;;;5085910;28;19912;-49
2021/05/24 05:04:36;;;;;;;;;;;27.80;83.10;;;;;;5085615;28;20101;-48
2021/05/24 05:07:02;;;;;;;;;;;27.80;83.20;;;;;;5085730;28;19948;-56
2021/05/24 05:09:28;;;;;;;;;;;27.80;83.30;;;;;;5085507;28;20061;-49
2021/05/24 05:11:55;;;;;;;;;;;27.80;83.40;;;;;;5085788;28;19912;-48
2021/05/24 05:14:25;;;;;;;;;;;27.70;83.30;;;;;;5085334;28;19905;-49
2021/05/24 05:16:51;;;;;;;;;;;27.80;83.30;;;;;;5067400;28;20128;-51
2021/05/24 05:19:18;;;;;;;;;;;27.70;83.30;;;;;;5085292;28;19905;-49
2021/05/24 05:21:46;;;;;;;;;;;27.80;83.40;;;;;;5085091;28;20026;-48
2021/05/24 05:24:12;;;;;;;;;;;27.80;83.30;;;;;;5085294;28;20076;-51
2021/05/24 05:26:39;;;;;;;;;;;27.70;83.30;;;;;;5085232;28;19926;-49
2021/05/24 05:29:05;;;;;;;;;;;27.70;83.40;;;;;;5085104;28;19908;-51
2021/05/24 05:31:31;;;;;;;;;;;27.70;83.20;;;;;;5085226;28;20074;-49
2021/05/24 05:33:57;;;;;;;;;;;27.70;83.30;;;;;;5085109;28;19913;-50
2021/05/24 05:36:25;;;;;;;;;;;27.70;83.40;;;;;;5085200;28;19995;-51
2021/05/24 05:38:51;;;;;;;;;;;27.70;83.50;;;;;;5084993;28;20101;-49
2021/05/24 05:41:17;;;;;;;;;;;27.70;83.60;;;;;;5084777;28;20189;-48
2021/05/24 05:43:43;;;;;;;;;;;27.70;83.70;;;;;;5084956;28;19916;-49
2021/05/24 05:46:10;;;;;;;;;;;27.70;83.70;;;;;;5084890;28;19915;-48
2021/05/24 05:48:36;;;;;;;;;;;27.70;83.70;;;;;;5084774;28;19912;-52
2021/05/24 05:51:03;;;;;;;;;;;27.70;83.80;;;;;;5085015;28;19919;-49
2021/05/24 05:53:30;;;;;;;;;;;27.60;83.80;;;;;;5084348;28;19919;-50
2021/05/24 05:55:56;;;;;;;;;;;27.60;84.40;;;;;;5084206;28;19967;-50
2021/05/24 05:58:23;;;;;;;;;;;27.60;83.80;;;;;;5084147;28;19904;-53
2021/05/24 06:00:49;;;;;;;;;;;27.60;83.80;;;;;;5084297;28;19943;-53
2021/05/24 06:03:15;;;;;;;;;;;27.60;83.90;;;;;;5084239;28;19996;-61
2021/05/24 06:05:41;;;;;;;;;;;27.60;84.10;;;;;;5084083;28;19905;-50
2021/05/24 06:08:08;;;;;;;;;;;27.60;84.00;;;;;;5084121;28;19946;-55
2021/05/24 06:10:34;;;;;;;;;;;27.60;84.20;;;;;;5084019;28;19904;-54
2021/05/24 06:13:00;;;;;;;;;;;27.60;84.20;;;;;;5083900;28;19927;-50
2021/05/24 06:15:27;;;;;;;;;;;27.50;84.40;;;;;;5083890;28;19908;-50
2021/05/24 06:17:53;;;;;;;;;;;27.50;84.30;;;;;;5084428;28;20031;-56
2021/05/24 06:20:19;;;;;;;;;;;27.50;84.20;;;;;;5083981;28;19910;-56
2021/05/24 06:22:45;;;;;;;;;;;27.50;84.20;;;;;;5084191;28;20066;-52
2021/05/24 06:25:12;;;;;;;;;;;27.50;84.20;;;;;;5084012;28;19912;-51
2021/05/24 06:27:38;;;;;;;;;;;27.50;84.10;;;;;;5084316;28;19912;-50
2021/05/24 06:30:06;;;;;;;;;;;27.50;84.40;;;;;;5086467;28;20208;-55
2021/05/24 06:32:32;;;;;;;;;;;27.50;84.40;;;;;;5088172;28;19925;-50
2021/05/24 06:34:58;;;;;;;;;;;27.50;84.60;;;;;;5087823;28;19904;-51
2021/05/24 06:37:25;;;;;;;;;;;27.40;84.70;;;;;;5088313;28;19919;-52
2021/05/24 06:39:51;;;;;;;;;;;27.40;84.90;;;;;;5087714;28;19904;-52
2021/05/24 06:42:17;;;;;;;;;;;27.40;85.20;;;;;;5088311;28;19951;-52
2021/05/24 06:44:43;;;;;;;;;;;27.40;85.20;;;;;;5087610;28;19904;-51
2021/05/24 06:47:10;;;;;;;;;;;27.40;85.10;;;;;;5087889;28;19913;-52
2021/05/24 06:49:36;;;;;;;;;;;27.30;84.90;;;;;;5087362;28;19912;-51
2021/05/24 06:52:03;;;;;;;;;;;27.30;85.10;;;;;;5087701;28;20002;-52
2021/05/24 06:54:29;;;;;;;;;;;27.30;85.20;;;;;;5087485;28;19912;-50
2021/05/24 06:56:55;;;;;;;;;;;27.30;85.10;;;;;;5087832;28;19927;-51
2021/05/24 06:59:21;;;;;;;;;;;27.30;85.10;;;;;;5087683;28;19905;-51
2021/05/24 07:01:48;;;;;;;;;;;27.30;84.90;;;;;;5087371;28;19912;-50
2021/05/24 07:04:14;;;;;;;;;;;27.20;84.80;;;;;;5087422;28;19904;-52
2021/05/24 07:06:40;;;;;;;;;;;27.20;84.70;;;;;;5087503;28;19913;-50
2021/05/24 07:09:06;;;;;;;;;;;27.30;84.70;;;;;;5087340;28;19904;-50
2021/05/24 07:11:33;;;;;;;;;;;27.20;84.60;;;;;;5087536;28;19913;-49
2021/05/24 07:13:59;;;;;;;;;;;27.20;84.60;;;;;;5087486;28;20208;-50
2021/05/24 07:16:25;;;;;;;;;;;27.20;84.80;;;;;;5087261;28;20112;-54
2021/05/24 07:18:51;;;;;;;;;;;27.20;84.60;;;;;;5087151;28;19919;-50
2021/05/24 07:21:17;;;;;;;;;;;27.20;84.60;;;;;;5087350;28;19912;-50
2021/05/24 07:23:44;;;;;;;;;;;27.20;84.50;;;;;;5087233;28;19995;-51
2021/05/24 07:26:10;;;;;;;;;;;27.20;84.30;;;;;;5087040;28;19988;-51
2021/05/24 07:28:36;;;;;;;;;;;27.20;84.20;;;;;;5087178;28;19982;-51
2021/05/24 07:31:02;;;;;;;;;;;27.20;84.10;;;;;;5086953;28;19916;-50
2021/05/24 07:33:29;;;;;;;;;;;27.20;84.20;;;;;;5086748;28;19916;-52
2021/05/24 07:35:55;;;;;;;;;;;27.20;84.20;;;;;;5086832;28;20101;-51
2021/05/24 07:38:21;;;;;;;;;;;27.20;84.30;;;;;;5086700;28;19904;-51
2021/05/24 07:40:48;;;;;;;;;;;27.20;84.30;;;;;;5086500;28;20250;-52
2021/05/24 07:43:14;;;;;;;;;;;27.20;84.20;;;;;;5086334;28;20240;-52
2021/05/24 07:45:40;;;;;;;;;;;27.20;84.20;;;;;;5086778;28;20215;-49
2021/05/24 07:48:06;;;;;;;;;;;27.20;84.20;;;;;;5086146;28;19927;-50
2021/05/24 07:50:32;;;;;;;;;;;27.20;84.20;;;;;;5086623;28;19905;-50
2021/05/24 07:52:59;;;;;;;;;;;27.20;84.30;;;;;;5086954;28;20101;-50
2021/05/24 07:55:25;;;;;;;;;;;27.20;84.40;;;;;;5086256;28;19911;-50
2021/05/24 07:57:51;;;;;;;;;;;27.10;84.30;;;;;;5086476;28;19934;-49
2021/05/24 08:00:19;;;;;;;;;;;27.10;84.50;;;;;;5086433;28;19912;-51
2021/05/24 08:02:45;;;;;;;;;;;27.10;84.70;;;;;;5086671;28;20196;-51
2021/05/24 08:05:12;;;;;;;;;;;27.10;84.80;;;;;;5086389;28;20175;-51
2021/05/24 08:07:39;;;;;;;;;;;27.10;84.50;;;;;;5086548;28;19946;-53
2021/05/24 08:10:06;;;;;;;;;;;27.10;84.50;;;;;;5086531;28;19912;-55
2021/05/24 08:12:36;;;;;;;;;;;27.00;84.60;;;;;;5086436;28;19924;-52
2021/05/24 08:15:02;;;;;;;;;;;27.00;84.70;;;;;;5086182;28;19973;-59
2021/05/24 08:17:29;;;;;;;;;;;27.10;85.00;;;;;;5086392;28;19912;-54
2021/05/24 08:19:55;;;;;;;;;;;27.10;84.50;;;;;;5085927;28;19912;-50
2021/05/24 08:22:21;;;;;;;;;;;27.10;84.30;;;;;;5086341;28;19916;-51
2021/05/24 08:24:47;;;;;;;;;;;27.10;84.50;;;;;;5085899;28;20215;-51
2021/05/24 08:27:13;;;;;;;;;;;27.00;84.60;;;;;;5086118;28;19912;-59
2021/05/24 08:29:39;;;;;;;;;;;27.10;84.70;;;;;;5085830;28;19911;-57
2021/05/24 08:32:06;;;;;;;;;;;27.00;84.60;;;;;;5085980;28;19954;-56
2021/05/24 08:34:32;;;;;;;;;;;27.10;84.50;;;;;;5085611;28;20135;-51
2021/05/24 08:36:58;;;;;;;;;;;27.00;84.40;;;;;;5085976;28;20010;-54
2021/05/24 08:39:24;;;;;;;;;;;27.00;84.30;;;;;;5085618;28;19939;-50
2021/05/24 08:41:52;;;;;;;;;;;27.00;84.30;;;;;;5085320;28;19980;-51
2021/05/24 08:44:18;;;;;;;;;;;27.00;84.60;;;;;;5085443;28;20212;-50
2021/05/24 08:46:45;;;;;;;;;;;27.00;84.70;;;;;;5085604;28;19919;-50
2021/05/24 08:49:11;;;;;;;;;;;27.00;84.90;;;;;;5085120;28;19916;-49
2021/05/24 08:51:37;;;;;;;;;;;27.00;84.80;;;;;;5084975;28;19958;-49
2021/05/24 08:54:04;;;;;;;;;;;27.00;84.70;;;;;;5085291;28;19916;-51
2021/05/24 08:56:30;;;;;;;;;;;27.00;84.60;;;;;;5085239;28;19943;-52
2021/05/24 08:58:57;;;;;;;;;;;27.00;84.70;;;;;;5085378;28;19911;-50
2021/05/24 09:01:24;;;;;;;;;;;26.90;85.00;;;;;;5085249;28;19912;-51
2021/05/24 09:03:57;;;;;;;;;;;26.90;85.50;;;;;;5085020;28;19905;-54
2021/05/24 09:06:33;;;;;;;;;;;26.90;85.70;;;;;;5085141;28;19912;-53
2021/05/24 09:09:06;;;;;;;;;;;26.90;85.70;;;;;;5085112;28;19979;-49
2021/05/24 09:11:33;;;;;;;;;;;26.90;85.90;;;;;;5067195;28;19979;-51
2021/05/24 09:14:00;;;;;;;;;;;26.90;86.30;;;;;;5084877;28;19915;-55
2021/05/24 09:16:33;;;;;;;;;;;26.90;86.60;;;;;;5084905;28;19912;-52
2021/05/24 09:19:19;;;;;;;;;;;26.90;86.90;;;;;;5084849;28;20105;-50
2021/05/24 09:21:48;;;;;;;;;;;26.90;87.00;;;;;;5084903;28;19912;-51
2021/05/24 09:24:38;;;;;;;;;;;26.90;87.30;;;;;;5084731;28;19910;-58
2021/05/24 09:27:06;;;;;;;;;;;26.90;87.20;;;;;;5079349;28;19983;-52
2021/05/24 09:29:43;;;;;;;;;;;26.80;87.30;;;;;;5084607;28;19905;-52
2021/05/24 09:32:13;;;;;;;;;;;26.90;87.20;;;;;;5084753;28;19936;-53
2021/05/24 09:34:39;;;;;;;;;;;26.90;87.10;;;;;;5084481;28;20095;-53
2021/05/24 09:37:06;;;;;;;;;;;26.90;87.10;;;;;;5084985;28;19913;-50
2021/05/24 09:39:33;;;;;;;;;;;26.90;87.20;;;;;;5084513;28;20101;-50
2021/05/24 09:42:01;;;;;;;;;;;26.90;87.40;;;;;;5084592;28;19959;-50
2021/05/24 09:44:30;;;;;;;;;;;26.90;87.60;;;;;;5084457;28;19904;-57
2021/05/24 09:46:56;;;;;;;;;;;26.90;87.40;;;;;;5084480;28;19979;-54
2021/05/24 09:49:26;;;;;;;;;;;26.90;87.40;;;;;;5084228;28;20247;-51
2021/05/24 09:51:53;;;;;;;;;;;26.90;87.70;;;;;;5084435;28;20204;-53
2021/05/24 09:54:21;;;;;;;;;;;26.90;88.00;;;;;;5084280;28;19905;-51
2021/05/24 09:56:48;;;;;;;;;;;26.90;88.40;;;;;;5084446;28;19912;-49
2021/05/24 09:59:16;;;;;;;;;;;26.80;88.60;;;;;;5084134;28;19927;-50
2021/05/24 10:01:49;;;;;;;;;;;26.80;88.80;;;;;;5066370;28;19912;-52
2021/05/24 10:04:19;;;;;;;;;;;26.80;89.20;;;;;;5083227;28;19912;-49
2021/05/24 10:06:45;;;;;;;;;;;26.80;89.90;;;;;;5084371;28;19919;-50
2021/05/24 10:09:13;;;;;;;;;;;26.80;89.40;;;;;;5084044;28;19905;-53
2021/05/24 10:11:40;;;;;;;;;;;26.80;89.10;;;;;;5084435;28;20242;-50
2021/05/24 10:14:07;;;;;;;;;;;26.80;89.20;;;;;;5084140;28;19953;-50
2021/05/24 10:16:37;;;;;;;;;;;26.80;89.30;;;;;;5084185;28;19919;-50
2021/05/24 10:19:05;;;;;;;;;;;26.80;89.50;;;;;;5083843;28;19958;-50
2021/05/24 10:21:31;;;;;;;;;;;26.80;89.80;;;;;;5083862;28;19912;-50
2021/05/24 10:23:57;;;;;;;;;;;26.80;89.60;;;;;;5083831;28;19905;-50
2021/05/24 10:26:25;;;;;;;;;;;26.80;89.80;;;;;;5083909;28;19919;-50
2021/05/24 10:28:52;;;;;;;;;;;26.80;90.00;;;;;;5084017;28;19943;-49
2021/05/24 10:31:19;;;;;;;;;;;26.80;90.10;;;;;;5083939;28;19912;-50
2021/05/24 10:33:46;;;;;;;;;;;26.80;90.10;;;;;;5084059;28;19912;-49
2021/05/24 10:36:17;;;;;;;;;;;26.80;90.20;;;;;;5083829;28;19912;-49
2021/05/24 10:38:43;;;;;;;;;;;26.80;90.30;;;;;;5083702;28;19905;-48
2021/05/24 10:41:09;;;;;;;;;;;26.80;90.40;;;;;;5083967;28;19953;-49
2021/05/24 10:43:42;;;;;;;;;;;26.80;90.50;;;;;;5083955;28;19900;-49
2021/05/24 10:46:26;;;;;;;;;;;26.80;90.50;;;;;;5083906;28;19913;-51
2021/05/24 10:49:01;;;;;;;;;;;26.80;90.50;;;;;;5083739;28;19944;-53
2021/05/24 10:52:01;;;;;;;;;;;26.80;90.60;;;;;;5083776;28;19920;-51
2021/05/24 10:54:30;;;;;;;;;;;26.70;90.70;;;;;;5061465;28;19944;-50
2021/05/24 10:56:59;;;;;;;;;;;26.80;90.70;;;;;;5083939;28;19976;-50
2021/05/24 10:59:38;;;;;;;;;;;26.80;90.60;;;;;;5065765;28;19905;-50
2021/05/24 11:02:07;;;;;;;;;;;26.80;90.70;;;;;;5084136;28;19941;-50
2021/05/24 11:04:56;;;;;;;;;;;26.80;90.80;;;;;;5083607;28;19926;-52
2021/05/24 11:07:22;;;;;;;;;;;26.80;91.00;;;;;;5083881;28;19948;-51
2021/05/24 11:09:49;;;;;;;;;;;26.80;91.10;;;;;;5083529;28;20101;-51
2021/05/24 11:12:27;;;;;;;;;;;26.80;91.00;;;;;;5083456;28;19916;-50
2021/05/24 11:15:09;;;;;;;;;;;26.80;91.10;;;;;;5084110;28;20101;-51
2021/05/24 11:17:54;;;;;;;;;;;26.80;91.10;;;;;;5087499;28;19912;-49
2021/05/24 11:20:27;;;;;;;;;;;26.80;91.20;;;;;;5087226;28;19977;-50
2021/05/24 11:24:07;;;;;;;;;;;26.80;91.10;;;;;;5087499;28;19912;-52
2021/05/24 11:26:14;;;;;;;;;;;26.80;90.90;;;;;;5076324;28;20205;-49
2021/05/24 11:28:42;;;;;;;;;;;26.80;90.80;;;;;;5087158;28;19912;-50
2021/05/24 11:31:08;;;;;;;;;;;26.80;90.80;;;;;;5069190;28;19987;-59
2021/05/24 11:33:35;;;;;;;;;;;26.80;90.80;;;;;;5086904;28;19908;-54
2021/05/24 11:36:01;;;;;;;;;;;26.80;90.80;;;;;;5087102;28;19912;-51
2021/05/24 11:38:28;;;;;;;;;;;26.80;90.70;;;;;;5087048;28;19915;-50
2021/05/24 11:41:20;;;;;;;;;;;26.80;90.60;;;;;;5087108;28;19904;-50
2021/05/24 11:43:53;;;;;;;;;;;26.80;90.50;;;;;;5084840;28;19908;-54
2021/05/24 11:46:19;;;;;;;;;;;26.80;90.40;;;;;;5087168;28;19909;-50
2021/05/24 11:48:45;;;;;;;;;;;26.80;90.30;;;;;;5086666;28;19912;-51
2021/05/24 11:51:15;;;;;;;;;;;26.90;90.30;;;;;;5086568;28;19934;-53
2021/05/24 11:54:00;;;;;;;;;;;26.90;90.30;;;;;;5086850;28;19912;-57
2021/05/24 11:56:37;;;;;;;;;;;26.90;90.20;;;;;;5086362;28;19916;-59
2021/05/24 11:59:04;;;;;;;;;;;26.90;90.10;;;;;;5086469;28;19962;-51
2021/05/24 12:01:30;;;;;;;;;;;27.00;90.10;;;;;;5086517;28;19983;-58
2021/05/24 12:03:57;;;;;;;;;;;27.00;90.00;;;;;;5086322;28;19920;-53
2021/05/24 12:06:23;;;;;;;;;;;27.00;89.90;;;;;;5086479;28;20125;-52
2021/05/24 12:08:50;;;;;;;;;;;27.10;89.80;;;;;;5086368;28;19908;-50
2021/05/24 12:11:19;;;;;;;;;;;27.10;89.80;;;;;;5086324;28;19919;-49
2021/05/24 12:14:18;;;;;;;;;;;27.20;89.60;;;;;;5086261;28;19909;-51
2021/05/24 12:16:44;;;;;;;;;;;27.20;89.70;;;;;;5063419;28;19920;-54
2021/05/24 12:19:10;;;;;;;;;;;27.20;89.60;;;;;;5085998;28;19912;-53
2021/05/24 12:21:38;;;;;;;;;;;27.30;89.50;;;;;;5086367;28;19912;-59
2021/05/24 12:24:06;;;;;;;;;;;27.30;89.60;;;;;;5085981;28;19919;-59
2021/05/24 12:26:33;;;;;;;;;;;27.40;89.40;;;;;;5085360;28;19912;-60
2021/05/24 12:28:59;;;;;;;;;;;27.40;89.40;;;;;;5086261;28;19911;-49
2021/05/24 12:31:26;;;;;;;;;;;27.50;89.30;;;;;;5086007;28;19935;-50
2021/05/24 12:33:54;;;;;;;;;;;27.50;89.30;;;;;;5085917;28;20131;-49
2021/05/24 12:36:21;;;;;;;;;;;27.60;89.10;;;;;;5086017;28;19961;-51
2021/05/24 12:38:50;;;;;;;;;;;27.70;89.30;;;;;;5085726;28;19912;-49
2021/05/24 12:41:19;;;;;;;;;;;27.70;88.80;;;;;;5085962;28;19919;-56
2021/05/24 12:43:52;;;;;;;;;;;27.70;88.90;;;;;;5085650;28;19900;-56
2021/05/24 12:46:19;;;;;;;;;;;27.70;88.90;;;;;;5085851;28;19935;-54
2021/05/24 12:48:50;;;;;;;;;;;27.80;89.10;;;;;;5085584;28;19918;-54
2021/05/24 12:51:18;;;;;;;;;;;27.80;89.00;;;;;;5085395;28;19916;-53
2021/05/24 12:53:53;;;;;;;;;;;27.80;88.80;;;;;;5085470;28;19920;-48
2021/05/24 12:56:19;;;;;;;;;;;27.80;88.80;;;;;;5085480;28;20223;-48
2021/05/24 12:58:46;;;;;;;;;;;27.80;88.60;;;;;;5073224;28;19940;-48
2021/05/24 13:01:12;;;;;;;;;;;27.80;88.70;;;;;;5085268;28;19984;-50
2021/05/24 13:03:49;;;;;;;;;;;27.80;88.70;;;;;;5084144;28;19905;-52
2021/05/24 13:06:17;;;;;;;;;;;27.80;89.20;;;;;;5067848;28;20085;-49
2021/05/24 13:09:01;;;;;;;;;;;27.80;89.50;;;;;;5065185;28;20213;-52
2021/05/24 13:11:45;;;;;;;;;;;27.80;89.70;;;;;;5074539;28;20213;-50
2021/05/24 13:14:18;;;;;;;;;;;27.80;90.00;;;;;;5061057;28;19919;-49
2021/05/24 13:17:03;;;;;;;;;;;27.80;89.80;;;;;;5073222;28;19920;-49
2021/05/24 13:30:07;;;;;;;;;;;27.70;90.30;;;;;;5064692;28;20078;-50
2021/05/24 13:32:33;;;;;;;;;;;27.70;90.40;;;;;;5065537;28;20185;-46
2021/05/24 13:34:59;;;;;;;;;;;27.70;90.40;;;;;;5065159;28;19937;-46
2021/05/24 13:37:25;;;;;;;;;;;27.60;90.40;;;;;;5065457;28;19951;-47
2021/05/24 13:40:00;;;;;;;;;;;27.50;90.50;;;;;;5064736;28;19976;-46
2021/05/24 13:42:27;;;;;;;;;;;27.30;90.80;;;;;;5064958;28;19919;-45
2021/05/24 13:44:54;;;;;;;;;;;27.20;91.00;;;;;;5064913;28;19909;-47
2021/05/24 13:47:20;;;;;;;;;;;27.10;91.40;;;;;;5065236;28;19976;-44
2021/05/24 13:49:47;;;;;;;;;;;27.00;91.90;;;;;;5065029;28;19927;-50
2021/05/24 13:52:13;;;;;;;;;;;27.00;92.00;;;;;;5064971;28;19913;-46
2021/05/24 13:54:42;;;;;;;;;;;27.00;91.90;;;;;;5064821;28;19912;-48
2021/05/24 13:57:09;;;;;;;;;;;26.90;92.10;;;;;;5064864;28;20128;-46
2021/05/24 13:59:35;;;;;;;;;;;26.90;92.50;;;;;;5064240;28;19911;-43
2021/05/24 14:02:01;;;;;;;;;;;26.80;92.70;;;;;;5064951;28;19919;-49
2021/05/24 14:04:27;;;;;;;;;;;26.80;92.80;;;;;;5064361;28;19970;-47
2021/05/24 14:06:54;;;;;;;;;;;26.80;92.90;;;;;;5064650;28;20169;-51
2021/05/24 14:09:20;;;;;;;;;;;26.70;93.00;;;;;;5064325;28;20174;-46
2021/05/24 14:11:46;;;;;;;;;;;26.60;93.10;;;;;;5064624;28;19983;-52
2021/05/24 14:14:12;;;;;;;;;;;26.50;93.30;;;;;;5064295;28;19916;-50
2021/05/24 14:16:38;;;;;;;;;;;26.60;93.30;;;;;;5073520;28;19912;-48
2021/05/24 14:19:04;;;;;;;;;;;26.50;93.40;;;;;;5084422;28;19928;-51
2021/05/24 14:21:31;;;;;;;;;;;26.40;94.00;;;;;;5084598;28;20136;-46
2021/05/24 14:23:58;;;;;;;;;;;26.30;94.20;;;;;;5084178;28;19980;-45
2021/05/24 14:26:24;;;;;;;;;;;26.20;94.30;;;;;;5084260;28;19919;-49
2021/05/24 14:28:50;;;;;;;;;;;26.20;94.80;;;;;;5084577;28;19904;-45
2021/05/24 14:31:16;;;;;;;;;;;26.20;94.80;;;;;;5084023;28;19912;-48